sensor_id;sensor_type;location;lat;lon;timestamp;P1;durP1;ratioP1;P2;durP2;ratioP2
52244;SDS011;55759;51.586;-1.758;2023-10-19T00:01:49;5.95;;;3.10;;
52244;SDS011;55759;51.586;-1.758;2023-10-19T00:04:19;6.18;;;2.90;;
52244;SDS011;55759;51.586;-1.758;2023-10-19T00:07:18;4.28;;;2.55;;
52244;SDS011;55759;51.586;-1.758;2023-10-19T00:13:40;5.22;;;1.80;;
52244;SDS011;55759;51.586;-1.758;2023-10-19T00:16:19;7.40;;;2.45;;
52244;SDS011;55759;51.586;-1.758;2023-10-19T00:18:52;4.97;;;1.70;;
52244;SDS011;55759;51.586;-1.758;2023-10-19T00:21:23;6.55;;;1.45;;
52244;SDS011;55759;51.586;-1.758;2023-10-19T00:26:42;7.82;;;1.50;;
52244;SDS011;55759;51.586;-1.758;2023-10-19T00:29:33;6.45;;;1.73;;
52244;SDS011;55759;51.586;-1.758;2023-10-19T00:35:27;3.38;;;1.60;;
52244;SDS011;55759;51.586;-1.758;2023-10-19T00:38:31;6.22;;;1.90;;
52244;SDS011;55759;51.586;-1.758;2023-10-19T00:41:41;6.95;;;1.90;;
52244;SDS011;55759;51.586;-1.758;2023-10-19T00:44:45;5.13;;;1.63;;
52244;SDS011;55759;51.586;-1.758;2023-10-19T00:47:36;4.88;;;1.85;;
52244;SDS011;55759;51.586;-1.758;2023-10-19T00:50:25;4.60;;;1.58;;
52244;SDS011;55759;51.586;-1.758;2023-10-19T00:53:04;6.80;;;1.65;;
52244;SDS011;55759;51.586;-1.758;2023-10-19T00:55:43;4.55;;;1.40;;
52244;SDS011;55759;51.586;-1.758;2023-10-19T00:58:34;3.75;;;1.60;;
52244;SDS011;55759;51.586;-1.758;2023-10-19T01:01:46;4.82;;;1.55;;
52244;SDS011;55759;51.586;-1.758;2023-10-19T01:05:09;7.18;;;1.60;;
52244;SDS011;55759;51.586;-1.758;2023-10-19T01:08:03;6.25;;;1.80;;
52244;SDS011;55759;51.586;-1.758;2023-10-19T01:23:48;4.65;;;1.77;;
52244;SDS011;55759;51.586;-1.758;2023-10-19T01:26:48;7.95;;;1.67;;
52244;SDS011;55759;51.586;-1.758;2023-10-19T01:32:38;8.38;;;2.28;;
52244;SDS011;55759;51.586;-1.758;2023-10-19T01:35:29;7.38;;;2.92;;
52244;SDS011;55759;51.586;-1.758;2023-10-19T01:54:31;6.18;;;1.77;;
52244;SDS011;55759;51.586;-1.758;2023-10-19T01:57:44;4.35;;;1.90;;
52244;SDS011;55759;51.586;-1.758;2023-10-19T02:00:45;5.78;;;1.83;;
52244;SDS011;55759;51.586;-1.758;2023-10-19T02:03:52;8.38;;;1.92;;
52244;SDS011;55759;51.586;-1.758;2023-10-19T02:10:30;6.20;;;1.75;;
52244;SDS011;55759;51.586;-1.758;2023-10-19T02:13:31;9.55;;;1.85;;
52244;SDS011;55759;51.586;-1.758;2023-10-19T02:16:11;6.40;;;2.22;;
52244;SDS011;55759;51.586;-1.758;2023-10-19T02:19:04;4.43;;;1.80;;
52244;SDS011;55759;51.586;-1.758;2023-10-19T02:21:52;4.20;;;1.60;;
52244;SDS011;55759;51.586;-1.758;2023-10-19T02:24:51;7.13;;;1.80;;
52244;SDS011;55759;51.586;-1.758;2023-10-19T02:27:29;5.60;;;1.70;;
52244;SDS011;55759;51.586;-1.758;2023-10-19T02:44:35;6.72;;;1.80;;
52244;SDS011;55759;51.586;-1.758;2023-10-19T02:50:56;9.65;;;2.65;;
52244;SDS011;55759;51.586;-1.758;2023-10-19T02:53:51;10.40;;;2.55;;
52244;SDS011;55759;51.586;-1.758;2023-10-19T02:57:24;11.82;;;2.35;;
52244;SDS011;55759;51.586;-1.758;2023-10-19T02:59:54;9.27;;;2.50;;
52244;SDS011;55759;51.586;-1.758;2023-10-19T03:02:48;10.23;;;2.67;;
52244;SDS011;55759;51.586;-1.758;2023-10-19T03:05:32;14.00;;;2.45;;
52244;SDS011;55759;51.586;-1.758;2023-10-19T03:08:37;12.65;;;3.22;;
52244;SDS011;55759;51.586;-1.758;2023-10-19T03:11:18;12.95;;;2.75;;
52244;SDS011;55759;51.586;-1.758;2023-10-19T03:14:18;11.63;;;2.80;;
52244;SDS011;55759;51.586;-1.758;2023-10-19T03:17:04;17.35;;;3.03;;
52244;SDS011;55759;51.586;-1.758;2023-10-19T03:19:52;13.77;;;3.75;;
52244;SDS011;55759;51.586;-1.758;2023-10-19T03:25:54;22.15;;;4.50;;
52244;SDS011;55759;51.586;-1.758;2023-10-19T03:31:32;24.17;;;4.90;;
52244;SDS011;55759;51.586;-1.758;2023-10-19T03:34:31;24.60;;;4.82;;
52244;SDS011;55759;51.586;-1.758;2023-10-19T03:37:27;29.83;;;4.90;;
52244;SDS011;55759;51.586;-1.758;2023-10-19T03:43:23;36.35;;;6.20;;
52244;SDS011;55759;51.586;-1.758;2023-10-19T03:46:19;34.20;;;5.75;;
52244;SDS011;55759;51.586;-1.758;2023-10-19T03:49:28;27.95;;;4.65;;
52244;SDS011;55759;51.586;-1.758;2023-10-19T03:52:50;26.90;;;4.85;;
52244;SDS011;55759;51.586;-1.758;2023-10-19T03:55:59;26.70;;;5.10;;
52244;SDS011;55759;51.586;-1.758;2023-10-19T03:59:16;25.58;;;5.05;;
52244;SDS011;55759;51.586;-1.758;2023-10-19T04:02:23;20.30;;;4.88;;
52244;SDS011;55759;51.586;-1.758;2023-10-19T04:15:38;32.83;;;5.18;;
52244;SDS011;55759;51.586;-1.758;2023-10-19T04:25:41;38.08;;;5.60;;
52244;SDS011;55759;51.586;-1.758;2023-10-19T04:31:57;28.48;;;5.47;;
52244;SDS011;55759;51.586;-1.758;2023-10-19T04:39:08;24.30;;;5.07;;
52244;SDS011;55759;51.586;-1.758;2023-10-19T04:45:40;22.38;;;4.63;;
52244;SDS011;55759;51.586;-1.758;2023-10-19T04:58:55;17.55;;;3.35;;
52244;SDS011;55759;51.586;-1.758;2023-10-19T05:01:42;16.48;;;3.40;;
52244;SDS011;55759;51.586;-1.758;2023-10-19T05:15:13;14.93;;;3.00;;
52244;SDS011;55759;51.586;-1.758;2023-10-19T05:21:46;11.05;;;2.60;;
52244;SDS011;55759;51.586;-1.758;2023-10-19T05:25:02;11.77;;;2.30;;
52244;SDS011;55759;51.586;-1.758;2023-10-19T05:31:01;12.10;;;2.70;;
52244;SDS011;55759;51.586;-1.758;2023-10-19T05:33:46;14.35;;;3.17;;
52244;SDS011;55759;51.586;-1.758;2023-10-19T05:36:52;13.80;;;2.72;;
52244;SDS011;55759;51.586;-1.758;2023-10-19T05:39:58;17.25;;;3.35;;
52244;SDS011;55759;51.586;-1.758;2023-10-19T05:46:04;21.92;;;3.17;;
52244;SDS011;55759;51.586;-1.758;2023-10-19T05:49:01;22.33;;;3.50;;
52244;SDS011;55759;51.586;-1.758;2023-10-19T05:55:10;21.45;;;3.30;;
52244;SDS011;55759;51.586;-1.758;2023-10-19T05:58:15;18.67;;;3.72;;
52244;SDS011;55759;51.586;-1.758;2023-10-19T06:10:49;19.33;;;3.10;;
52244;SDS011;55759;51.586;-1.758;2023-10-19T06:13:56;16.85;;;3.45;;
52244;SDS011;55759;51.586;-1.758;2023-10-19T06:20:15;16.02;;;2.90;;
52244;SDS011;55759;51.586;-1.758;2023-10-19T06:23:26;32.78;;;12.68;;
52244;SDS011;55759;51.586;-1.758;2023-10-19T06:33:27;18.90;;;3.35;;
52244;SDS011;55759;51.586;-1.758;2023-10-19T07:00:53;27.27;;;4.22;;
52244;SDS011;55759;51.586;-1.758;2023-10-19T07:03:35;20.67;;;3.88;;
52244;SDS011;55759;51.586;-1.758;2023-10-19T07:10:25;30.67;;;4.90;;
52244;SDS011;55759;51.586;-1.758;2023-10-19T07:12:54;25.92;;;4.35;;
52244;SDS011;55759;51.586;-1.758;2023-10-19T07:15:26;24.58;;;3.92;;
52244;SDS011;55759;51.586;-1.758;2023-10-19T07:25:30;26.60;;;4.03;;
52244;SDS011;55759;51.586;-1.758;2023-10-19T07:37:33;27.58;;;4.25;;
52244;SDS011;55759;51.586;-1.758;2023-10-19T07:40:11;12.93;;;2.92;;
52244;SDS011;55759;51.586;-1.758;2023-10-19T07:42:50;13.15;;;2.22;;
52244;SDS011;55759;51.586;-1.758;2023-10-19T07:45:37;13.60;;;2.22;;
52244;SDS011;55759;51.586;-1.758;2023-10-19T07:48:27;15.60;;;1.75;;
52244;SDS011;55759;51.586;-1.758;2023-10-19T07:53:46;8.77;;;2.10;;
52244;SDS011;55759;51.586;-1.758;2023-10-19T07:56:25;7.60;;;1.92;;
52244;SDS011;55759;51.586;-1.758;2023-10-19T07:59:23;13.15;;;2.10;;
52244;SDS011;55759;51.586;-1.758;2023-10-19T08:02:29;11.07;;;2.55;;
52244;SDS011;55759;51.586;-1.758;2023-10-19T08:04:59;10.15;;;2.22;;
52244;SDS011;55759;51.586;-1.758;2023-10-19T08:07:26;16.30;;;2.90;;
52244;SDS011;55759;51.586;-1.758;2023-10-19T08:09:53;10.55;;;2.10;;
52244;SDS011;55759;51.586;-1.758;2023-10-19T08:12:19;17.60;;;2.70;;
52244;SDS011;55759;51.586;-1.758;2023-10-19T08:28:55;21.75;;;3.75;;
52244;SDS011;55759;51.586;-1.758;2023-10-19T08:31:24;29.40;;;4.40;;
52244;SDS011;55759;51.586;-1.758;2023-10-19T08:34:22;25.70;;;3.60;;
52244;SDS011;55759;51.586;-1.758;2023-10-19T08:47:24;23.92;;;4.05;;
52244;SDS011;55759;51.586;-1.758;2023-10-19T08:50:36;31.42;;;4.72;;
52244;SDS011;55759;51.586;-1.758;2023-10-19T08:53:08;28.05;;;4.25;;
52244;SDS011;55759;51.586;-1.758;2023-10-19T08:59:08;27.10;;;4.57;;
52244;SDS011;55759;51.586;-1.758;2023-10-19T09:09:01;30.55;;;4.97;;
52244;SDS011;55759;51.586;-1.758;2023-10-19T09:11:49;27.13;;;4.50;;
52244;SDS011;55759;51.586;-1.758;2023-10-19T09:17:53;31.20;;;7.55;;
52244;SDS011;55759;51.586;-1.758;2023-10-19T09:31:53;30.23;;;4.88;;
52244;SDS011;55759;51.586;-1.758;2023-10-19T09:41:24;23.50;;;3.58;;
52244;SDS011;55759;51.586;-1.758;2023-10-19T09:50:45;23.25;;;3.85;;
52244;SDS011;55759;51.586;-1.758;2023-10-19T09:57:27;19.35;;;3.13;;
52244;SDS011;55759;51.586;-1.758;2023-10-19T10:42:42;19.80;;;3.03;;
52244;SDS011;55759;51.586;-1.758;2023-10-19T11:29:16;19.67;;;3.17;;
52244;SDS011;55759;51.586;-1.758;2023-10-19T11:46:43;25.50;;;4.05;;
52244;SDS011;55759;51.586;-1.758;2023-10-19T12:14:03;11.05;;;2.67;;
52244;SDS011;55759;51.586;-1.758;2023-10-19T12:46:57;11.82;;;2.78;;
52244;SDS011;55759;51.586;-1.758;2023-10-19T13:29:32;14.48;;;2.50;;
52244;SDS011;55759;51.586;-1.758;2023-10-19T13:32:06;14.48;;;2.67;;
52244;SDS011;55759;51.586;-1.758;2023-10-19T13:34:38;12.65;;;2.70;;
52244;SDS011;55759;51.586;-1.758;2023-10-19T13:37:26;11.68;;;2.50;;
52244;SDS011;55759;51.586;-1.758;2023-10-19T13:43:26;13.70;;;2.97;;
52244;SDS011;55759;51.586;-1.758;2023-10-19T13:52:11;15.30;;;3.20;;
52244;SDS011;55759;51.586;-1.758;2023-10-19T13:54:44;18.35;;;3.15;;
52244;SDS011;55759;51.586;-1.758;2023-10-19T14:00:50;18.30;;;4.78;;
52244;SDS011;55759;51.586;-1.758;2023-10-19T14:03:28;16.17;;;3.42;;
52244;SDS011;55759;51.586;-1.758;2023-10-19T14:06:00;17.13;;;3.13;;
52244;SDS011;55759;51.586;-1.758;2023-10-19T14:08:43;15.90;;;3.67;;
52244;SDS011;55759;51.586;-1.758;2023-10-19T14:14:18;20.15;;;3.05;;
52244;SDS011;55759;51.586;-1.758;2023-10-19T14:16:44;14.10;;;3.08;;
52244;SDS011;55759;51.586;-1.758;2023-10-19T14:26:09;15.70;;;3.15;;
52244;SDS011;55759;51.586;-1.758;2023-10-19T14:29:05;17.70;;;3.22;;
52244;SDS011;55759;51.586;-1.758;2023-10-19T14:32:03;16.88;;;3.35;;
52244;SDS011;55759;51.586;-1.758;2023-10-19T14:37:48;18.05;;;3.70;;
52244;SDS011;55759;51.586;-1.758;2023-10-19T14:41:04;13.65;;;2.90;;
52244;SDS011;55759;51.586;-1.758;2023-10-19T14:47:30;13.80;;;3.15;;
52244;SDS011;55759;51.586;-1.758;2023-10-19T14:49:58;14.68;;;3.00;;
52244;SDS011;55759;51.586;-1.758;2023-10-19T14:52:32;15.70;;;3.28;;
52244;SDS011;55759;51.586;-1.758;2023-10-19T14:55:01;15.93;;;3.17;;
52244;SDS011;55759;51.586;-1.758;2023-10-19T14:57:27;17.40;;;3.25;;
52244;SDS011;55759;51.586;-1.758;2023-10-19T14:59:57;21.05;;;3.20;;
52244;SDS011;55759;51.586;-1.758;2023-10-19T15:02:32;19.42;;;3.10;;
52244;SDS011;55759;51.586;-1.758;2023-10-19T15:04:58;18.67;;;3.45;;
52244;SDS011;55759;51.586;-1.758;2023-10-19T15:10:42;16.20;;;3.88;;
52244;SDS011;55759;51.586;-1.758;2023-10-19T15:13:11;22.85;;;3.40;;
52244;SDS011;55759;51.586;-1.758;2023-10-19T15:19:21;20.63;;;4.57;;
52244;SDS011;55759;51.586;-1.758;2023-10-19T15:22:06;18.38;;;3.33;;
52244;SDS011;55759;51.586;-1.758;2023-10-19T15:27:35;20.13;;;4.00;;
52244;SDS011;55759;51.586;-1.758;2023-10-19T15:37:21;18.40;;;4.10;;
52244;SDS011;55759;51.586;-1.758;2023-10-19T15:44:19;22.98;;;4.20;;
52244;SDS011;55759;51.586;-1.758;2023-10-19T15:52:37;23.58;;;3.60;;
52244;SDS011;55759;51.586;-1.758;2023-10-19T15:55:19;22.08;;;4.10;;
52244;SDS011;55759;51.586;-1.758;2023-10-19T15:58:07;27.25;;;4.47;;
52244;SDS011;55759;51.586;-1.758;2023-10-19T16:00:40;25.23;;;4.30;;
52244;SDS011;55759;51.586;-1.758;2023-10-19T16:34:26;29.85;;;4.63;;
52244;SDS011;55759;51.586;-1.758;2023-10-19T16:46:33;29.08;;;4.75;;
52244;SDS011;55759;51.586;-1.758;2023-10-19T17:01:55;34.13;;;8.30;;
52244;SDS011;55759;51.586;-1.758;2023-10-19T17:04:24;29.20;;;5.57;;
52244;SDS011;55759;51.586;-1.758;2023-10-19T17:12:42;23.08;;;4.13;;
52244;SDS011;55759;51.586;-1.758;2023-10-19T17:22:32;27.17;;;9.57;;
52244;SDS011;55759;51.586;-1.758;2023-10-19T17:33:11;24.40;;;5.40;;
52244;SDS011;55759;51.586;-1.758;2023-10-19T17:35:38;28.67;;;5.07;;
52244;SDS011;55759;51.586;-1.758;2023-10-19T17:38:10;28.33;;;5.18;;
52244;SDS011;55759;51.586;-1.758;2023-10-19T17:41:39;30.88;;;5.68;;
52244;SDS011;55759;51.586;-1.758;2023-10-19T17:45:02;22.95;;;4.68;;
52244;SDS011;55759;51.586;-1.758;2023-10-19T17:48:14;17.77;;;4.82;;
52244;SDS011;55759;51.586;-1.758;2023-10-19T17:50:54;19.85;;;4.90;;
52244;SDS011;55759;51.586;-1.758;2023-10-19T17:53:26;19.73;;;5.53;;
52244;SDS011;55759;51.586;-1.758;2023-10-19T17:55:52;22.77;;;4.72;;
52244;SDS011;55759;51.586;-1.758;2023-10-19T17:58:21;22.35;;;5.13;;
52244;SDS011;55759;51.586;-1.758;2023-10-19T18:00:47;18.10;;;4.72;;
52244;SDS011;55759;51.586;-1.758;2023-10-19T18:03:17;26.63;;;5.35;;
52244;SDS011;55759;51.586;-1.758;2023-10-19T18:05:45;20.52;;;4.65;;
52244;SDS011;55759;51.586;-1.758;2023-10-19T18:08:14;19.10;;;5.00;;
52244;SDS011;55759;51.586;-1.758;2023-10-19T18:10:49;20.40;;;5.40;;
52244;SDS011;55759;51.586;-1.758;2023-10-19T18:13:17;23.88;;;5.10;;
52244;SDS011;55759;51.586;-1.758;2023-10-19T18:15:46;22.05;;;5.40;;
52244;SDS011;55759;51.586;-1.758;2023-10-19T18:18:18;22.95;;;6.40;;
52244;SDS011;55759;51.586;-1.758;2023-10-19T18:20:50;18.70;;;5.75;;
52244;SDS011;55759;51.586;-1.758;2023-10-19T18:23:33;20.77;;;6.47;;
52244;SDS011;55759;51.586;-1.758;2023-10-19T18:26:12;20.33;;;5.97;;
52244;SDS011;55759;51.586;-1.758;2023-10-19T18:28:44;22.20;;;8.30;;
52244;SDS011;55759;51.586;-1.758;2023-10-19T18:31:21;14.23;;;4.43;;
52244;SDS011;55759;51.586;-1.758;2023-10-19T18:33:50;37.28;;;17.33;;
52244;SDS011;55759;51.586;-1.758;2023-10-19T18:36:19;45.20;;;24.70;;
52244;SDS011;55759;51.586;-1.758;2023-10-19T18:45:29;14.80;;;6.45;;
52244;SDS011;55759;51.586;-1.758;2023-10-19T18:47:58;13.30;;;3.08;;
52244;SDS011;55759;51.586;-1.758;2023-10-19T18:53:42;25.35;;;11.82;;
52244;SDS011;55759;51.586;-1.758;2023-10-19T18:58:38;12.32;;;4.13;;
52244;SDS011;55759;51.586;-1.758;2023-10-19T19:01:07;39.38;;;20.40;;
52244;SDS011;55759;51.586;-1.758;2023-10-19T19:03:39;17.55;;;4.60;;
52244;SDS011;55759;51.586;-1.758;2023-10-19T19:06:05;12.25;;;4.07;;
52244;SDS011;55759;51.586;-1.758;2023-10-19T19:08:47;17.15;;;6.07;;
52244;SDS011;55759;51.586;-1.758;2023-10-19T19:11:37;17.13;;;5.82;;
52244;SDS011;55759;51.586;-1.758;2023-10-19T19:14:30;16.45;;;4.82;;
52244;SDS011;55759;51.586;-1.758;2023-10-19T19:17:02;14.52;;;5.47;;
52244;SDS011;55759;51.586;-1.758;2023-10-19T19:22:28;15.95;;;5.80;;
52244;SDS011;55759;51.586;-1.758;2023-10-19T19:25:06;16.85;;;5.88;;
52244;SDS011;55759;51.586;-1.758;2023-10-19T19:27:33;18.77;;;5.80;;
52244;SDS011;55759;51.586;-1.758;2023-10-19T19:30:02;18.25;;;5.65;;
52244;SDS011;55759;51.586;-1.758;2023-10-19T19:32:31;15.73;;;5.57;;
52244;SDS011;55759;51.586;-1.758;2023-10-19T19:35:05;19.92;;;6.22;;
52244;SDS011;55759;51.586;-1.758;2023-10-19T19:40:37;18.45;;;5.30;;
52244;SDS011;55759;51.586;-1.758;2023-10-19T19:43:33;16.50;;;5.95;;
52244;SDS011;55759;51.586;-1.758;2023-10-19T19:46:01;21.42;;;6.88;;
52244;SDS011;55759;51.586;-1.758;2023-10-19T19:48:32;24.45;;;6.88;;
52244;SDS011;55759;51.586;-1.758;2023-10-19T20:05:32;23.63;;;7.15;;
52244;SDS011;55759;51.586;-1.758;2023-10-19T20:08:45;31.13;;;7.68;;
52244;SDS011;55759;51.586;-1.758;2023-10-19T20:14:35;22.63;;;6.93;;
52244;SDS011;55759;51.586;-1.758;2023-10-19T20:17:03;30.38;;;6.60;;
52244;SDS011;55759;51.586;-1.758;2023-10-19T20:19:41;32.55;;;6.85;;
52244;SDS011;55759;51.586;-1.758;2023-10-19T20:22:25;29.10;;;6.65;;
52244;SDS011;55759;51.586;-1.758;2023-10-19T20:24:54;35.83;;;6.75;;
52244;SDS011;55759;51.586;-1.758;2023-10-19T20:40:30;29.33;;;6.38;;
52244;SDS011;55759;51.586;-1.758;2023-10-19T20:42:59;30.02;;;7.05;;
52244;SDS011;55759;51.586;-1.758;2023-10-19T20:45:27;31.02;;;6.72;;
52244;SDS011;55759;51.586;-1.758;2023-10-19T20:47:53;28.52;;;6.38;;
52244;SDS011;55759;51.586;-1.758;2023-10-19T20:54:03;37.83;;;10.25;;
52244;SDS011;55759;51.586;-1.758;2023-10-19T20:59:43;33.92;;;7.13;;
52244;SDS011;55759;51.586;-1.758;2023-10-19T21:02:09;26.65;;;7.45;;
52244;SDS011;55759;51.586;-1.758;2023-10-19T21:04:38;28.42;;;7.13;;
52244;SDS011;55759;51.586;-1.758;2023-10-19T21:07:17;20.33;;;4.57;;
52244;SDS011;55759;51.586;-1.758;2023-10-19T21:13:09;24.42;;;7.88;;
52244;SDS011;55759;51.586;-1.758;2023-10-19T21:16:19;20.55;;;4.63;;
52244;SDS011;55759;51.586;-1.758;2023-10-19T21:18:52;21.63;;;5.55;;
52244;SDS011;55759;51.586;-1.758;2023-10-19T21:34:27;14.65;;;3.42;;
52244;SDS011;55759;51.586;-1.758;2023-10-19T21:36:55;9.55;;;3.20;;
52244;SDS011;55759;51.586;-1.758;2023-10-19T21:39:24;12.23;;;3.35;;
52244;SDS011;55759;51.586;-1.758;2023-10-19T21:45:34;11.73;;;2.90;;
52244;SDS011;55759;51.586;-1.758;2023-10-19T21:48:03;13.73;;;3.60;;
52244;SDS011;55759;51.586;-1.758;2023-10-19T21:53:56;18.10;;;3.22;;
52244;SDS011;55759;51.586;-1.758;2023-10-19T21:56:41;15.55;;;3.58;;
52244;SDS011;55759;51.586;-1.758;2023-10-19T21:59:09;10.80;;;2.90;;
52244;SDS011;55759;51.586;-1.758;2023-10-19T22:01:45;13.20;;;3.00;;
52244;SDS011;55759;51.586;-1.758;2023-10-19T22:04:48;12.18;;;3.08;;
52244;SDS011;55759;51.586;-1.758;2023-10-19T22:07:14;16.98;;;4.43;;
52244;SDS011;55759;51.586;-1.758;2023-10-19T22:09:48;15.70;;;3.58;;
52244;SDS011;55759;51.586;-1.758;2023-10-19T22:12:30;15.48;;;3.75;;
52244;SDS011;55759;51.586;-1.758;2023-10-19T22:18:43;12.93;;;3.47;;
52244;SDS011;55759;51.586;-1.758;2023-10-19T22:21:47;11.80;;;3.38;;
52244;SDS011;55759;51.586;-1.758;2023-10-19T22:30:55;9.80;;;3.20;;
52244;SDS011;55759;51.586;-1.758;2023-10-19T22:33:26;15.27;;;2.88;;
52244;SDS011;55759;51.586;-1.758;2023-10-19T22:35:57;9.30;;;3.20;;
52244;SDS011;55759;51.586;-1.758;2023-10-19T22:38:42;13.85;;;2.80;;
52244;SDS011;55759;51.586;-1.758;2023-10-19T22:41:08;10.82;;;2.55;;
52244;SDS011;55759;51.586;-1.758;2023-10-19T22:43:40;9.05;;;2.80;;
52244;SDS011;55759;51.586;-1.758;2023-10-19T22:46:06;8.15;;;2.53;;
52244;SDS011;55759;51.586;-1.758;2023-10-19T22:48:39;12.77;;;3.20;;
52244;SDS011;55759;51.586;-1.758;2023-10-19T22:51:05;13.02;;;3.20;;
52244;SDS011;55759;51.586;-1.758;2023-10-19T22:53:52;19.05;;;6.15;;
52244;SDS011;55759;51.586;-1.758;2023-10-19T22:56:54;12.50;;;3.28;;
52244;SDS011;55759;51.586;-1.758;2023-10-19T22:59:21;12.27;;;3.17;;
52244;SDS011;55759;51.586;-1.758;2023-10-19T23:01:50;17.25;;;4.05;;
52244;SDS011;55759;51.586;-1.758;2023-10-19T23:05:30;15.20;;;4.10;;
52244;SDS011;55759;51.586;-1.758;2023-10-19T23:07:52;16.55;;;3.80;;
52244;SDS011;55759;51.586;-1.758;2023-10-19T23:10:58;19.13;;;3.97;;
52244;SDS011;55759;51.586;-1.758;2023-10-19T23:16:39;17.02;;;4.10;;
52244;SDS011;55759;51.586;-1.758;2023-10-19T23:19:05;13.73;;;4.07;;
52244;SDS011;55759;51.586;-1.758;2023-10-19T23:21:35;16.08;;;4.45;;
52244;SDS011;55759;51.586;-1.758;2023-10-19T23:24:02;13.20;;;3.95;;
52244;SDS011;55759;51.586;-1.758;2023-10-19T23:26:29;17.58;;;4.07;;
52244;SDS011;55759;51.586;-1.758;2023-10-19T23:28:57;18.42;;;4.05;;
52244;SDS011;55759;51.586;-1.758;2023-10-19T23:31:29;13.75;;;4.35;;
52244;SDS011;55759;51.586;-1.758;2023-10-19T23:34:01;14.18;;;4.50;;
52244;SDS011;55759;51.586;-1.758;2023-10-19T23:36:26;21.70;;;4.22;;
52244;SDS011;55759;51.586;-1.758;2023-10-19T23:38:58;24.65;;;5.20;;
52244;SDS011;55759;51.586;-1.758;2023-10-19T23:41:30;18.98;;;4.13;;
52244;SDS011;55759;51.586;-1.758;2023-10-19T23:43:58;21.85;;;4.38;;
52244;SDS011;55759;51.586;-1.758;2023-10-19T23:46:26;15.07;;;4.05;;
52244;SDS011;55759;51.586;-1.758;2023-10-19T23:48:57;18.55;;;4.13;;
52244;SDS011;55759;51.586;-1.758;2023-10-19T23:51:23;13.90;;;4.20;;
52244;SDS011;55759;51.586;-1.758;2023-10-19T23:53:49;17.05;;;3.97;;
52244;SDS011;55759;51.586;-1.758;2023-10-19T23:56:17;14.90;;;3.40;;
52244;SDS011;55759;51.586;-1.758;2023-10-19T23:58:45;7.57;;;3.15;;
